Time;durP1;ratioP1;P1;durP2;ratioP2;P2;SDS_P1;SDS_P2;PMS_P1;PMS_P2;Temp;Humidity;BMP_temperature;BMP_pressure;BME280_temperature;BME280_humidity;BME280_pressure;Samples;Min_cycle;Max_cycle;Signal;HPM_P1;HPM_P2
2023/06/02 03:18:22;;;;;;;7.13;2.38;;;15.10;84.60;;;;;;6216398;22;82337;-79
2023/06/02 03:20:49;;;;;;;4.03;2.15;;;15.10;84.20;;;;;;6222977;22;81944;-79
2023/06/02 03:23:16;;;;;;;4.65;2.08;;;15.10;84.30;;;;;;6221869;22;82474;-78
2023/06/02 03:25:43;;;;;;;5.63;2.20;;;15.10;84.20;;;;;;6194303;22;86063;-78
2023/06/02 03:28:09;;;;;;;5.63;1.83;;;15.20;83.90;;;;;;6222155;22;83243;-78
2023/06/02 03:30:34;;;;;;;4.60;1.83;;;15.20;83.70;;;;;;6222754;22;82050;-79
2023/06/02 03:33:00;;;;;;;5.90;1.50;;;15.20;83.60;;;;;;6222556;22;83826;-76
2023/06/02 03:35:26;;;;;;;4.70;1.83;;;15.20;83.50;;;;;;6198039;22;86271;-79
2023/06/02 03:37:51;;;;;;;4.55;1.55;;;15.20;83.50;;;;;;6224495;22;82238;-78
2023/06/02 03:40:17;;;;;;;4.43;1.98;;;15.20;83.40;;;;;;6195779;22;82566;-77
2023/06/02 03:42:43;;;;;;;4.55;1.92;;;15.20;83.50;;;;;;6195433;22;83806;-79
2023/06/02 03:45:09;;;;;;;6.15;2.20;;;15.20;83.90;;;;;;6222608;22;81604;-80
2023/06/02 03:47:35;;;;;;;4.15;2.00;;;15.10;84.20;;;;;;6195381;22;82542;-79
2023/06/02 03:50:00;;;;;;;5.25;2.05;;;15.10;84.50;;;;;;6222779;22;82314;-81
2023/06/02 03:52:26;;;;;;;8.40;2.20;;;15.00;84.80;;;;;;6221312;22;84332;-81
2023/06/02 03:54:52;;;;;;;5.47;1.92;;;15.10;85.40;;;;;;6195179;22;85894;-80
2023/06/02 03:57:18;;;;;;;6.05;1.92;;;15.20;84.70;;;;;;6222765;22;82306;-78
2023/06/02 03:59:44;;;;;;;4.72;2.17;;;15.50;83.80;;;;;;6222849;22;82415;-79
2023/06/02 04:02:10;;;;;;;3.75;2.30;;;15.90;82.40;;;;;;6221050;22;82547;-83
2023/06/02 04:04:36;;;;;;;4.63;2.33;;;16.30;80.40;;;;;;6222052;22;83218;-80
2023/06/02 04:07:02;;;;;;;5.80;1.98;;;16.60;79.00;;;;;;6222539;22;82415;-79
2023/06/02 04:09:28;;;;;;;4.53;2.35;;;16.90;76.90;;;;;;6221682;22;81724;-83
2023/06/02 04:11:54;;;;;;;5.03;2.30;;;17.30;76.20;;;;;;6221275;22;83669;-81
2023/06/02 04:14:20;;;;;;;3.42;2.22;;;17.70;75.80;;;;;;6193813;22;84250;-80
2023/06/02 04:16:46;;;;;;;6.25;2.05;;;18.10;74.10;;;;;;6208797;22;83344;-82
2023/06/02 04:19:12;;;;;;;7.30;2.70;;;18.50;72.40;;;;;;6191305;22;82511;-80
2023/06/02 04:21:37;;;;;;;5.10;2.22;;;18.90;70.50;;;;;;6190878;22;82646;-81
2023/06/02 04:24:03;;;;;;;4.63;2.28;;;19.20;69.70;;;;;;6190659;22;82352;-82
2023/06/02 04:26:29;;;;;;;4.47;2.30;;;19.60;68.70;;;;;;6191473;22;82288;-82
2023/06/02 04:28:55;;;;;;;10.57;2.10;;;19.70;67.50;;;;;;6189315;22;82420;-81
2023/06/02 04:31:26;;;;;;;6.63;2.45;;;20.20;66.40;;;;;;6190560;22;83455;-80
2023/06/02 04:33:57;;;;;;;6.82;2.55;;;20.50;64.90;;;;;;6191292;22;82172;-81
2023/06/02 04:36:23;;;;;;;5.20;2.67;;;20.80;64.60;;;;;;6190603;22;82510;-81
2023/06/02 04:38:48;;;;;;;5.00;2.58;;;21.30;63.30;;;;;;6190622;22;82324;-83
2023/06/02 04:41:14;;;;;;;5.97;2.90;;;21.70;62.60;;;;;;6189853;22;84689;-81
2023/06/02 04:43:41;;;;;;;5.80;3.15;;;22.10;60.40;;;;;;6189750;22;83767;-81
2023/06/02 04:46:07;;;;;;;5.88;3.00;;;22.40;60.10;;;;;;6189964;22;82466;-84
2023/06/02 04:48:33;;;;;;;7.90;2.70;;;22.90;58.70;;;;;;6191004;22;82319;-80
2023/06/02 04:50:58;;;;;;;10.52;2.78;;;23.30;57.90;;;;;;6162762;22;83369;-79
2023/06/02 04:53:24;;;;;;;3.85;2.97;;;23.60;56.20;;;;;;6190227;22;82795;-80
2023/06/02 04:55:50;;;;;;;7.03;3.15;;;23.90;56.40;;;;;;6190066;22;82403;-79
2023/06/02 04:58:16;;;;;;;4.38;2.63;;;24.20;55.20;;;;;;6191056;22;81296;-84
2023/06/02 05:00:42;;;;;;;5.85;2.97;;;24.70;53.90;;;;;;6190369;22;83458;-81
2023/06/02 05:03:08;;;;;;;6.25;3.13;;;24.70;53.60;;;;;;6190583;22;82770;-80
2023/06/02 05:05:33;;;;;;;4.97;3.35;;;24.70;53.70;;;;;;6188729;22;83264;-80
2023/06/02 05:07:59;;;;;;;7.10;3.35;;;24.70;54.00;;;;;;6191087;22;82166;-81
2023/06/02 05:10:25;;;;;;;6.07;3.58;;;24.90;52.90;;;;;;6189759;22;83057;-80
2023/06/02 05:12:53;;;;;;;7.80;3.38;;;25.10;52.60;;;;;;6188230;22;82959;-80
2023/06/02 05:15:19;;;;;;;4.75;3.47;;;25.30;52.10;;;;;;6189834;22;82625;-82
2023/06/02 05:17:44;;;;;;;7.38;3.40;;;25.70;51.40;;;;;;6190202;22;82442;-81
2023/06/02 05:20:10;;;;;;;6.80;3.88;;;26.00;50.60;;;;;;6189826;22;83007;-80
2023/06/02 05:22:36;;;;;;;5.53;3.42;;;26.10;50.70;;;;;;6189510;22;83186;-80
2023/06/02 05:25:02;;;;;;;9.32;3.65;;;26.70;50.40;;;;;;6190050;22;82250;-80
2023/06/02 05:27:28;;;;;;;6.97;3.38;;;27.10;49.20;;;;;;6190368;22;82240;-80
2023/06/02 05:29:54;;;;;;;8.00;3.65;;;27.30;50.00;;;;;;6189005;22;84196;-80
2023/06/02 05:32:22;;;;;;;4.63;3.20;;;27.90;48.60;;;;;;6188859;22;83677;-81
2023/06/02 05:34:48;;;;;;;5.35;3.78;;;28.40;48.60;;;;;;6189787;22;82457;-81
2023/06/02 05:37:13;;;;;;;7.60;3.78;;;29.10;46.60;;;;;;6190608;22;82372;-81
2023/06/02 05:39:41;;;;;;;8.30;3.50;;;28.90;46.40;;;;;;6190060;22;82520;-80
2023/06/02 05:42:07;;;;;;;9.07;2.70;;;29.00;46.10;;;;;;6191361;22;83437;-81
2023/06/02 05:44:33;;;;;;;5.97;2.65;;;29.20;45.80;;;;;;6191270;22;82861;-81
2023/06/02 05:46:58;;;;;;;5.53;3.85;;;29.40;44.80;;;;;;6192641;22;81546;-81
2023/06/02 05:49:24;;;;;;;6.22;3.38;;;29.70;45.10;;;;;;6197690;22;83107;-79
2023/06/02 05:51:50;;;;;;;9.10;4.07;;;30.60;44.20;;;;;;6196083;22;82355;-81
2023/06/02 05:54:15;;;;;;;5.32;3.17;;;31.40;43.20;;;;;;6191098;22;83020;-81
2023/06/02 05:56:41;;;;;;;7.22;3.13;;;31.50;41.70;;;;;;6192059;22;81954;-81
2023/06/02 05:59:08;;;;;;;6.25;4.05;;;32.10;41.90;;;;;;6191073;22;82660;-81
2023/06/02 06:01:34;;;;;;;7.07;4.15;;;32.00;40.10;;;;;;6164918;22;84869;-81
2023/06/02 06:03:59;;;;;;;8.60;4.78;;;32.30;41.00;;;;;;6191527;22;82385;-81
2023/06/02 06:06:25;;;;;;;10.00;3.92;;;32.50;40.50;;;;;;6191852;22;82436;-82
2023/06/02 06:08:51;;;;;;;6.88;4.93;;;32.50;40.40;;;;;;6191379;22;82905;-81
2023/06/02 06:11:17;;;;;;;5.25;3.65;;;32.80;40.00;;;;;;6191527;22;82752;-81
2023/06/02 06:13:42;;;;;;;9.02;4.40;;;32.70;39.40;;;;;;6191604;22;82328;-81
2023/06/02 06:16:08;;;;;;;5.75;4.75;;;33.40;39.60;;;;;;6191228;22;82632;-82
2023/06/02 06:18:34;;;;;;;8.77;4.72;;;33.70;39.60;;;;;;6190953;22;84746;-81
2023/06/02 06:21:00;;;;;;;7.65;3.67;;;33.90;39.50;;;;;;6191459;22;82466;-81
2023/06/02 06:23:25;;;;;;;8.05;4.78;;;34.30;38.80;;;;;;6191054;22;81910;-81
2023/06/02 06:25:51;;;;;;;5.38;3.67;;;34.20;36.90;;;;;;6191444;22;82317;-81
2023/06/02 06:28:17;;;;;;;6.93;4.95;;;34.10;38.00;;;;;;6191396;22;82346;-81
2023/06/02 06:30:42;;;;;;;8.48;5.30;;;33.90;38.00;;;;;;6191517;22;82320;-81
2023/06/02 06:33:08;;;;;;;7.32;4.90;;;34.00;39.50;;;;;;6190815;22;82147;-82
2023/06/02 06:35:35;;;;;;;9.63;4.75;;;34.50;37.80;;;;;;6191884;22;81565;-81
2023/06/02 06:38:01;;;;;;;6.25;4.20;;;35.10;36.70;;;;;;6191406;22;82567;-81
2023/06/02 06:40:27;;;;;;;8.15;4.28;;;35.80;36.70;;;;;;6190738;22;82631;-82
2023/06/02 06:42:53;;;;;;;11.60;4.00;;;36.20;36.50;;;;;;6190950;22;83630;-81
2023/06/02 06:45:18;;;;;;;5.63;3.80;;;36.40;35.60;;;;;;6191345;22;82485;-81
2023/06/02 06:47:45;;;;;;;10.95;4.45;;;36.80;36.00;;;;;;6191501;22;83065;-81
2023/06/02 06:50:14;;;;;;;6.88;4.78;;;36.90;36.80;;;;;;6191106;22;82878;-82
2023/06/02 06:52:39;;;;;;;6.78;4.57;;;38.10;34.80;;;;;;6190907;22;81947;-82
2023/06/02 06:55:05;;;;;;;5.30;4.80;;;39.10;35.00;;;;;;6191617;22;82502;-82
2023/06/02 06:57:32;;;;;;;9.00;5.45;;;39.00;35.10;;;;;;6190848;22;83644;-82
2023/06/02 06:59:57;;;;;;;7.15;5.55;;;39.40;34.60;;;;;;6192083;22;82462;-81
2023/06/02 07:02:23;;;;;;;6.72;5.22;;;40.10;34.10;;;;;;6191410;22;81968;-82
2023/06/02 07:04:48;;;;;;;8.98;5.55;;;40.00;35.00;;;;;;6191493;22;82518;-83
2023/06/02 07:07:15;;;;;;;5.60;5.07;;;40.00;34.70;;;;;;6190614;22;83218;-84
2023/06/02 07:09:41;;;;;;;10.88;5.93;;;40.10;33.80;;;;;;6190858;22;84121;-83
2023/06/02 07:12:07;;;;;;;7.53;5.43;;;40.70;34.20;;;;;;6191190;22;82348;-84
2023/06/02 07:14:33;;;;;;;8.02;5.95;;;40.20;33.80;;;;;;6190754;22;82219;-82
2023/06/02 07:16:59;;;;;;;6.65;5.95;;;40.30;34.00;;;;;;6190381;22;82671;-82
2023/06/02 07:19:25;;;;;;;10.27;6.85;;;40.70;34.30;;;;;;6191024;22;82174;-83
2023/06/02 07:21:52;;;;;;;8.50;4.90;;;41.20;35.00;;;;;;6191000;22;82302;-83
2023/06/02 07:24:18;;;;;;;7.75;6.93;;;41.50;34.00;;;;;;6191813;22;81395;-85
2023/06/02 07:26:44;;;;;;;8.52;7.10;;;41.00;34.20;;;;;;6190804;22;83211;-82
2023/06/02 07:29:10;;;;;;;7.90;7.10;;;41.40;34.00;;;;;;6191432;22;82666;-84
2023/06/02 07:31:36;;;;;;;10.65;8.10;;;40.90;34.60;;;;;;6190134;22;83199;-83
2023/06/02 07:34:03;;;;;;;8.60;5.25;;;41.40;33.90;;;;;;6191115;22;82191;-83
2023/06/02 07:36:28;;;;;;;7.90;7.10;;;42.00;34.50;;;;;;6191350;22;82253;-83
2023/06/02 07:38:54;;;;;;;9.07;7.50;;;42.20;33.00;;;;;;6190546;22;82288;-83
2023/06/02 07:41:20;;;;;;;8.40;7.63;;;42.20;33.70;;;;;;6191672;22;82268;-84
2023/06/02 07:43:46;;;;;;;8.80;7.97;;;42.50;33.90;;;;;;6164657;22;82399;-83
2023/06/02 07:46:12;;;;;;;9.88;8.98;;;41.90;33.30;;;;;;6190549;22;82977;-83
2023/06/02 07:48:38;;;;;;;9.30;7.78;;;42.30;33.80;;;;;;6191643;22;82393;-83
2023/06/02 07:51:04;;;;;;;9.93;7.90;;;42.20;32.90;;;;;;6191413;22;82378;-83
2023/06/02 07:53:30;;;;;;;7.90;7.07;;;42.90;32.60;;;;;;6191759;22;82503;-83
2023/06/02 07:55:56;;;;;;;7.40;6.63;;;42.80;32.40;;;;;;6190922;22;83575;-83
2023/06/02 07:58:22;;;;;;;9.60;8.55;;;42.40;32.80;;;;;;6190952;22;83134;-84
2023/06/02 08:00:49;;;;;;;11.10;8.10;;;42.80;33.30;;;;;;6192613;22;82113;-83
2023/06/02 08:03:14;;;;;;;10.05;8.60;;;43.40;33.60;;;;;;6192330;22;81958;-84
2023/06/02 08:05:40;;;;;;;10.90;9.38;;;43.60;33.30;;;;;;6205563;22;83151;-86
2023/06/02 08:08:06;;;;;;;9.48;8.57;;;43.60;33.70;;;;;;6196498;22;81986;-83
2023/06/02 08:10:32;;;;;;;9.43;8.18;;;43.80;32.00;;;;;;6191964;22;81894;-84
2023/06/02 08:12:57;;;;;;;9.93;8.77;;;43.50;33.30;;;;;;6191482;22;81518;-83
2023/06/02 08:15:23;;;;;;;9.77;8.85;;;43.90;33.20;;;;;;6191866;22;83307;-84
2023/06/02 08:17:49;;;;;;;9.68;8.35;;;43.90;33.30;;;;;;6190228;22;82535;-83
2023/06/02 08:20:16;;;;;;;9.68;8.65;;;44.70;32.40;;;;;;6190653;22;83565;-83
2023/06/02 08:22:44;;;;;;;13.02;8.98;;;44.60;32.80;;;;;;6191506;22;82616;-83
2023/06/02 08:25:10;;;;;;;10.27;9.30;;;44.70;32.10;;;;;;6191352;22;82413;-83
2023/06/02 08:27:36;;;;;;;10.02;9.10;;;45.00;32.70;;;;;;6190864;22;83008;-84
2023/06/02 08:30:03;;;;;;;11.05;9.93;;;45.50;31.50;;;;;;6191157;22;82170;-83
2023/06/02 08:32:29;;;;;;;11.07;9.48;;;45.40;31.10;;;;;;6190747;22;82813;-84
2023/06/02 08:34:56;;;;;;;11.07;10.05;;;45.30;32.30;;;;;;6190753;22;82993;-84
2023/06/02 08:37:22;;;;;;;14.02;11.25;;;45.50;31.80;;;;;;6189665;22;84114;-84
2023/06/02 08:39:49;;;;;;;13.75;12.38;;;45.10;31.90;;;;;;6189570;22;83668;-83
2023/06/02 08:42:15;;;;;;;10.70;9.77;;;44.80;32.60;;;;;;6190044;22;82637;-84
2023/06/02 08:44:43;;;;;;;12.73;10.05;;;44.50;32.40;;;;;;6190011;22;84551;-84
2023/06/02 08:47:11;;;;;;;10.73;9.82;;;44.80;33.20;;;;;;6189289;22;83013;-83
2023/06/02 08:49:40;;;;;;;10.75;9.57;;;45.20;32.00;;;;;;6190882;22;84432;-83
2023/06/02 08:52:11;;;;;;;11.77;10.48;;;45.50;31.80;;;;;;6190924;22;82283;-84
2023/06/02 08:54:39;;;;;;;12.07;10.88;;;45.50;31.60;;;;;;6188840;22;83095;-84
2023/06/02 08:57:05;;;;;;;10.43;9.38;;;45.50;31.70;;;;;;6189222;22;84197;-83
2023/06/02 08:59:31;;;;;;;11.45;10.30;;;45.70;31.50;;;;;;6190861;22;82880;-86
2023/06/02 09:02:00;;;;;;;11.25;10.10;;;46.10;31.90;;;;;;6190177;22;82960;-83
2023/06/02 09:04:27;;;;;;;13.10;10.73;;;46.30;31.00;;;;;;6189408;22;82702;-83
2023/06/02 09:07:11;;;;;;;13.57;11.00;;;46.60;30.90;;;;;;6189158;22;83028;-83
2023/06/02 09:09:51;;;;;;;11.45;10.32;;;46.30;30.70;;;;;;6188699;22;83308;-83
2023/06/02 09:12:19;;;;;;;11.20;9.00;;;46.10;32.10;;;;;;6189885;22;82560;-83
2023/06/02 09:14:46;;;;;;;11.35;10.20;;;45.90;31.70;;;;;;6189295;22;83744;-83
2023/06/02 09:17:25;;;;;;;;;;;45.70;31.50;;;;;;6189375;22;83619;-84
2023/06/02 09:19:53;;;;;;;12.85;11.52;;;45.30;31.50;;;;;;6192055;22;82848;-83
2023/06/02 09:22:19;;;;;;;9.95;9.05;;;45.60;31.20;;;;;;6189384;22;82946;-83
2023/06/02 09:24:45;;;;;;;10.25;9.15;;;45.20;31.70;;;;;;6190145;22;83090;-84
2023/06/02 09:27:15;;;;;;;11.43;7.60;;;44.90;31.40;;;;;;6190229;22;81850;-83
2023/06/02 09:29:42;;;;;;;11.82;9.23;;;45.10;31.20;;;;;;6190744;22;82295;-83
2023/06/02 09:32:26;;;;;;;10.50;9.57;;;44.70;31.50;;;;;;6191139;22;81931;-84
2023/06/02 09:34:51;;;;;;;10.82;9.75;;;44.80;32.20;;;;;;6189454;22;83794;-83
2023/06/02 09:37:18;;;;;;;10.70;8.85;;;44.70;32.10;;;;;;6189706;22;83734;-83
2023/06/02 09:39:49;;;;;;;12.05;9.70;;;44.80;32.00;;;;;;6189846;22;82635;-83
2023/06/02 09:42:17;;;;;;;11.27;8.95;;;45.00;31.80;;;;;;6190580;22;82304;-84
2023/06/02 09:45:08;;;;;;;9.63;8.73;;;45.00;31.70;;;;;;6189289;22;82963;-83
2023/06/02 09:47:41;;;;;;;12.25;7.43;;;43.70;32.80;;;;;;6189415;22;82857;-84
2023/06/02 09:50:08;;;;;;;10.30;7.95;;;44.10;33.00;;;;;;6189822;22;82322;-85
2023/06/02 09:52:34;;;;;;;8.25;7.10;;;44.20;33.10;;;;;;6189996;22;82211;-84
2023/06/02 09:55:00;;;;;;;8.60;7.70;;;43.80;31.40;;;;;;6189433;22;83517;-83
2023/06/02 09:57:26;;;;;;;8.55;7.20;;;43.00;32.80;;;;;;6189389;22;83056;-83
2023/06/02 09:59:52;;;;;;;9.07;6.18;;;41.80;33.50;;;;;;6189564;22;82912;-83
2023/06/02 10:02:18;;;;;;;8.98;6.43;;;40.90;32.90;;;;;;6189969;22;81972;-82
2023/06/02 10:04:45;;;;;;;6.50;5.10;;;39.90;33.40;;;;;;6190046;22;82450;-81
2023/06/02 10:07:13;;;;;;;8.40;5.05;;;38.70;34.70;;;;;;6190209;22;83692;-82
2023/06/02 10:10:16;;;;;;;7.30;5.03;;;37.90;37.60;;;;;;6190240;22;82601;-82
2023/06/02 10:13:09;;;;;;;6.65;4.00;;;37.00;36.40;;;;;;6190404;22;82603;-82
2023/06/02 10:15:38;;;;;;;8.65;3.95;;;35.40;40.10;;;;;;6189467;22;83308;-82
2023/06/02 10:18:18;;;;;;;6.93;3.00;;;34.60;39.80;;;;;;6205136;22;82964;-83
2023/06/02 10:21:22;;;;;;;10.73;4.15;;;34.20;39.90;;;;;;6197479;22;82148;-82
2023/06/02 10:24:03;;;;;;;5.07;2.80;;;33.70;41.10;;;;;;6139581;22;82286;-81
2023/06/02 10:26:59;;;;;;;4.95;3.55;;;32.80;41.80;;;;;;6186988;22;84122;-82
2023/06/02 10:29:28;;;;;;;5.05;3.15;;;32.50;42.60;;;;;;6188342;22;83880;-82
2023/06/02 10:31:53;;;;;;;;;;;32.00;42.30;;;;;;6189507;22;82223;-81
2023/06/02 10:34:34;;;;;;;5.25;3.30;;;31.40;42.40;;;;;;6189717;22;82269;-83
2023/06/02 10:37:00;;;;;;;7.03;3.03;;;31.20;44.60;;;;;;6187805;22;82981;-81
2023/06/02 10:39:41;;;;;;;7.47;3.33;;;31.10;44.60;;;;;;6190571;22;83034;-81
2023/06/02 10:42:06;;;;;;;6.55;3.25;;;31.00;46.40;;;;;;6191181;22;82381;-82
2023/06/02 10:44:32;;;;;;;8.55;3.15;;;31.00;45.90;;;;;;6190258;22;81242;-82
2023/06/02 10:47:18;;;;;;;4.65;2.97;;;31.00;43.80;;;;;;6189172;22;82495;-81
2023/06/02 10:50:02;;;;;;;3.97;2.17;;;30.80;46.40;;;;;;6167684;22;83991;-81
2023/06/02 10:52:30;;;;;;;6.50;3.20;;;30.80;47.30;;;;;;6189128;22;82974;-81
2023/06/02 10:55:07;;;;;;;6.70;3.90;;;30.80;47.30;;;;;;6189895;22;82293;-81
2023/06/02 10:58:03;;;;;;;4.90;3.03;;;30.60;47.10;;;;;;6189636;22;83164;-82
2023/06/02 11:00:43;;;;;;;4.90;3.40;;;30.50;46.80;;;;;;6188681;22;82976;-81
2023/06/02 11:03:08;;;;;;;5.93;2.88;;;30.40;47.50;;;;;;6189442;22;82240;-81
2023/06/02 11:05:34;;;;;;;7.55;3.15;;;30.40;47.00;;;;;;6188982;22;82454;-82
2023/06/02 11:08:16;;;;;;;5.38;3.42;;;30.50;47.60;;;;;;6188588;22;82436;-81
2023/06/02 11:10:55;;;;;;;8.10;3.08;;;30.80;46.60;;;;;;6190172;22;83291;-81
2023/06/02 11:13:22;;;;;;;3.95;2.97;;;30.60;47.30;;;;;;6189239;22;82459;-81
2023/06/02 11:16:10;;;;;;;5.07;2.90;;;30.50;46.90;;;;;;6188871;22;82360;-82
2023/06/02 11:18:40;;;;;;;8.65;3.47;;;30.40;46.90;;;;;;6141244;22;83200;-82
2023/06/02 11:21:20;;;;;;;6.13;3.00;;;30.30;45.60;;;;;;6158925;22;83400;-82
2023/06/02 11:23:46;;;;;;;7.55;3.17;;;30.30;47.10;;;;;;6157860;22;82145;-81
2023/06/02 11:26:15;;;;;;;5.07;3.10;;;30.30;47.50;;;;;;6159066;22;82301;-81
2023/06/02 11:28:41;;;;;;;10.40;3.17;;;30.10;47.70;;;;;;6158707;22;84662;-81
2023/06/02 11:31:14;;;;;;;5.53;2.60;;;30.20;48.10;;;;;;6156843;22;82762;-80
2023/06/02 11:33:41;;;;;;;10.77;3.60;;;30.20;46.50;;;;;;6158163;22;82326;-83
2023/06/02 11:36:09;;;;;;;5.75;3.58;;;30.10;47.90;;;;;;6155744;22;81741;-81
2023/06/02 11:38:35;;;;;;;6.63;2.85;;;30.10;47.40;;;;;;6156388;22;84216;-82
2023/06/02 11:41:15;;;;;;;8.68;3.13;;;30.20;47.20;;;;;;6156038;22;82451;-82
2023/06/02 11:43:47;;;;;;;11.38;2.78;;;30.30;48.40;;;;;;6152113;22;83701;-81
2023/06/02 11:46:17;;;;;;;7.13;2.42;;;30.30;48.20;;;;;;6161197;22;81825;-81
2023/06/02 11:48:44;;;;;;;6.38;2.67;;;30.30;48.90;;;;;;6161099;22;83086;-81
2023/06/02 11:51:12;;;;;;;8.55;2.47;;;30.50;49.40;;;;;;6161537;22;82161;-79
2023/06/02 11:53:44;;;;;;;4.82;3.20;;;30.50;48.90;;;;;;6162175;22;82116;-79
2023/06/02 11:56:14;;;;;;;10.10;2.30;;;30.40;46.50;;;;;;6161961;22;81927;-81
2023/06/02 11:58:41;;;;;;;14.77;3.40;;;30.50;47.90;;;;;;6135201;22;85294;-83
2023/06/02 12:01:08;;;;;;;4.78;2.80;;;30.50;47.00;;;;;;6135312;22;85103;-80
2023/06/02 12:03:34;;;;;;;11.23;3.58;;;30.50;48.60;;;;;;6161495;22;82549;-78
2023/06/02 12:06:11;;;;;;;6.55;3.03;;;30.60;45.30;;;;;;6161972;22;82495;-82
2023/06/02 12:08:37;;;;;;;5.90;3.28;;;30.40;45.30;;;;;;6161888;22;84026;-80
2023/06/02 12:11:03;;;;;;;8.98;2.00;;;30.40;46.80;;;;;;6161334;22;82453;-79
2023/06/02 12:13:30;;;;;;;6.95;3.25;;;30.40;50.20;;;;;;6160725;22;82121;-83
2023/06/02 12:16:17;;;;;;;5.88;2.92;;;30.30;46.90;;;;;;6161332;22;82326;-81
2023/06/02 12:18:43;;;;;;;8.60;2.53;;;30.20;47.00;;;;;;6161523;22;83367;-79
2023/06/02 12:21:23;;;;;;;6.10;2.92;;;30.20;47.30;;;;;;6161123;22;82594;-81
2023/06/02 12:23:49;;;;;;;6.95;1.90;;;30.20;46.00;;;;;;6160527;22;82187;-80
2023/06/02 12:26:15;;;;;;;8.45;3.65;;;30.10;47.90;;;;;;6162235;22;81149;-79
2023/06/02 12:28:41;;;;;;;6.03;3.45;;;30.10;48.40;;;;;;6163979;22;83047;-84
2023/06/02 12:31:07;;;;;;;7.05;3.75;;;30.00;48.80;;;;;;6168062;22;82320;-79
2023/06/02 12:33:34;;;;;;;6.88;2.40;;;29.90;47.70;;;;;;6160805;22;82947;-79
2023/06/02 12:36:00;;;;;;;5.20;2.95;;;29.90;48.60;;;;;;6161029;22;81943;-80
2023/06/02 12:38:27;;;;;;;5.70;2.97;;;29.90;48.90;;;;;;6161508;22;82742;-79
2023/06/02 12:40:53;;;;;;;4.10;2.88;;;29.80;47.50;;;;;;6160954;22;82677;-79
2023/06/02 12:43:19;;;;;;;9.50;3.40;;;29.90;46.10;;;;;;6159038;22;81856;-80
2023/06/02 12:45:46;;;;;;;5.43;2.45;;;30.00;46.90;;;;;;6161780;22;82266;-78
2023/06/02 12:48:12;;;;;;;9.25;2.72;;;29.90;49.40;;;;;;6161088;22;82927;-79
2023/06/02 12:50:38;;;;;;;6.00;3.15;;;29.80;46.50;;;;;;6161500;22;82667;-83
2023/06/02 12:53:04;;;;;;;9.00;3.42;;;29.60;46.30;;;;;;6161712;22;82138;-79
2023/06/02 12:55:30;;;;;;;5.70;2.35;;;29.60;47.40;;;;;;6157796;22;82248;-82
2023/06/02 12:57:56;;;;;;;9.35;2.95;;;29.70;46.90;;;;;;6160285;22;84010;-81
2023/06/02 13:00:22;;;;;;;6.85;2.72;;;29.70;48.80;;;;;;6160493;22;84729;-78
2023/06/02 13:02:48;;;;;;;5.15;2.75;;;29.80;46.90;;;;;;6160424;22;82044;-80
2023/06/02 13:05:15;;;;;;;11.60;2.92;;;29.90;46.40;;;;;;6161438;22;82476;-79
2023/06/02 13:07:41;;;;;;;7.72;3.50;;;29.80;46.40;;;;;;6161177;22;83625;-81
2023/06/02 13:10:09;;;;;;;4.53;3.03;;;29.80;46.60;;;;;;6162501;22;82023;-80
2023/06/02 13:12:36;;;;;;;7.70;2.30;;;29.90;45.50;;;;;;6163631;22;82352;-81
2023/06/02 13:15:05;;;;;;;8.07;3.45;;;29.80;46.10;;;;;;6163690;22;81226;-80
2023/06/02 13:17:32;;;;;;;6.85;2.72;;;29.80;44.50;;;;;;6180367;22;83103;-81
2023/06/02 13:19:58;;;;;;;11.60;2.92;;;29.70;45.40;;;;;;6190482;22;83481;-82
2023/06/02 13:22:26;;;;;;;7.10;1.95;;;29.50;46.30;;;;;;6187257;22;83237;-84
2023/06/02 13:24:52;;;;;;;8.48;3.10;;;29.60;45.10;;;;;;6193626;22;82015;-78
2023/06/02 13:27:18;;;;;;;8.38;2.95;;;29.60;45.00;;;;;;6193813;22;83149;-78
2023/06/02 13:29:44;;;;;;;4.97;2.88;;;29.60;44.70;;;;;;6194223;22;82135;-84
2023/06/02 13:32:10;;;;;;;9.50;3.28;;;29.70;45.50;;;;;;6192439;22;82320;-81
2023/06/02 13:34:35;;;;;;;7.10;3.15;;;29.60;44.30;;;;;;6191845;22;82416;-78
2023/06/02 13:37:01;;;;;;;7.22;3.15;;;29.70;44.50;;;;;;6190465;22;83541;-79
2023/06/02 13:39:27;;;;;;;7.70;2.78;;;29.60;44.50;;;;;;6193388;22;82797;-79
2023/06/02 13:41:53;;;;;;;4.55;2.97;;;29.70;45.80;;;;;;6193709;22;81872;-78
2023/06/02 13:44:19;;;;;;;4.57;2.92;;;29.50;44.80;;;;;;6193826;22;81989;-78
2023/06/02 13:46:51;;;;;;;5.90;2.03;;;29.50;44.30;;;;;;6192571;22;83872;-79
2023/06/02 13:49:19;;;;;;;7.22;2.97;;;29.40;44.50;;;;;;6193720;22;83683;-80
2023/06/02 13:51:47;;;;;;;6.07;2.70;;;29.50;44.70;;;;;;6193655;22;82246;-76
2023/06/02 13:54:17;;;;;;;6.43;2.90;;;29.30;44.50;;;;;;6190125;22;82091;-76
2023/06/02 13:56:45;;;;;;;6.25;3.08;;;29.20;45.90;;;;;;6193293;22;82487;-77
2023/06/02 13:59:11;;;;;;;4.75;2.55;;;29.20;45.40;;;;;;6192116;22;83275;-76
2023/06/02 14:01:37;;;;;;;10.02;3.10;;;29.30;45.10;;;;;;6192654;22;82456;-76
2023/06/02 14:04:07;;;;;;;4.22;2.38;;;29.20;45.20;;;;;;6193659;22;81169;-76
2023/06/02 14:06:35;;;;;;;4.85;2.55;;;29.20;45.80;;;;;;6167105;22;83100;-76
2023/06/02 14:09:04;;;;;;;4.38;2.53;;;29.30;45.50;;;;;;6188635;22;82674;-75
2023/06/02 14:11:31;;;;;;;11.57;3.30;;;29.20;43.70;;;;;;6192891;22;83156;-76
2023/06/02 14:13:57;;;;;;;5.03;2.67;;;29.10;45.30;;;;;;6194768;22;82207;-76
2023/06/02 14:16:23;;;;;;;4.47;2.80;;;29.10;44.70;;;;;;6194291;22;82406;-76
2023/06/02 14:18:48;;;;;;;4.45;2.65;;;29.00;44.20;;;;;;6194517;22;82729;-76
2023/06/02 14:21:14;;;;;;;5.57;2.55;;;28.90;44.90;;;;;;6195140;22;81854;-76
2023/06/02 14:23:40;;;;;;;7.75;2.80;;;29.00;44.90;;;;;;6191505;22;82009;-76
2023/06/02 14:26:05;;;;;;;4.88;2.72;;;29.00;45.40;;;;;;6194153;22;83015;-76
2023/06/02 14:28:31;;;;;;;6.57;2.35;;;29.00;43.50;;;;;;6194858;22;82181;-76
2023/06/02 14:30:57;;;;;;;6.45;2.42;;;28.90;44.60;;;;;;6194981;22;82255;-75
2023/06/02 14:33:23;;;;;;;5.28;1.80;;;28.80;44.30;;;;;;6195296;22;81958;-76
2023/06/02 14:35:48;;;;;;;6.32;2.92;;;28.90;44.60;;;;;;6193779;22;83448;-75
2023/06/02 14:38:14;;;;;;;8.18;2.67;;;28.80;44.20;;;;;;6194805;22;83781;-75
2023/06/02 14:40:41;;;;;;;7.90;2.80;;;28.80;44.60;;;;;;6191862;22;81898;-77
2023/06/02 14:43:06;;;;;;;6.65;2.42;;;28.80;43.90;;;;;;6195390;22;82286;-76
2023/06/02 14:45:32;;;;;;;5.55;2.50;;;28.80;44.20;;;;;;6194275;22;82127;-75
2023/06/02 14:47:57;;;;;;;5.82;2.65;;;28.80;43.90;;;;;;6195139;22;82172;-76
2023/06/02 14:50:23;;;;;;;4.82;1.95;;;28.90;45.40;;;;;;6194813;22;82240;-76
2023/06/02 14:52:49;;;;;;;3.97;2.40;;;28.70;44.00;;;;;;6195592;22;81605;-75
2023/06/02 14:55:15;;;;;;;4.38;2.08;;;28.70;44.40;;;;;;6191967;22;82764;-76
2023/06/02 14:57:40;;;;;;;5.57;2.45;;;28.60;44.40;;;;;;6194487;22;82249;-76
2023/06/02 15:00:08;;;;;;;6.75;2.90;;;28.60;44.20;;;;;;6193362;22;83200;-75
2023/06/02 15:02:34;;;;;;;5.57;2.78;;;28.50;44.40;;;;;;6193667;22;82167;-76
2023/06/02 15:04:59;;;;;;;9.70;1.75;;;28.60;44.60;;;;;;6194484;22;82452;-76
2023/06/02 15:07:25;;;;;;;4.07;2.33;;;28.60;44.90;;;;;;6194452;22;82271;-76
2023/06/02 15:09:51;;;;;;;10.68;2.53;;;28.50;44.10;;;;;;6194439;22;82213;-76
2023/06/02 15:12:17;;;;;;;8.10;2.38;;;28.50;44.50;;;;;;6191867;22;82022;-76
2023/06/02 15:14:44;;;;;;;6.93;2.55;;;28.50;44.60;;;;;;6194085;22;82069;-76
2023/06/02 15:17:10;;;;;;;8.23;2.72;;;28.60;44.10;;;;;;6194936;22;82498;-76
2023/06/02 15:19:36;;;;;;;6.38;2.90;;;28.60;44.20;;;;;;6194503;22;81810;-76
2023/06/02 15:22:02;;;;;;;9.80;2.70;;;28.50;43.90;;;;;;6194677;22;82026;-76
2023/06/02 15:24:27;;;;;;;6.68;2.45;;;28.50;44.50;;;;;;6194310;22;84136;-76
2023/06/02 15:26:53;;;;;;;7.68;2.63;;;28.40;44.10;;;;;;6191244;22;82187;-76
2023/06/02 15:29:19;;;;;;;8.07;2.40;;;28.40;44.20;;;;;;6194536;22;82303;-75
2023/06/02 15:31:48;;;;;;;7.00;2.47;;;28.50;44.60;;;;;;6195001;22;82637;-76
2023/06/02 15:34:15;;;;;;;4.57;2.75;;;28.40;44.00;;;;;;6194494;22;83239;-75
2023/06/02 15:36:40;;;;;;;7.35;2.22;;;28.40;45.50;;;;;;6194568;22;82156;-75
2023/06/02 15:39:06;;;;;;;5.28;2.80;;;28.40;44.50;;;;;;6194965;22;82307;-75
2023/06/02 15:41:32;;;;;;;5.40;2.95;;;28.20;44.60;;;;;;6195140;22;81605;-75
2023/06/02 15:43:58;;;;;;;5.85;2.38;;;28.20;44.20;;;;;;6190697;22;83420;-75
2023/06/02 15:46:23;;;;;;;7.68;2.55;;;28.20;45.40;;;;;;6194511;22;82729;-75
2023/06/02 15:48:49;;;;;;;8.90;2.50;;;28.20;45.30;;;;;;6194303;22;83359;-74
2023/06/02 15:51:15;;;;;;;6.53;2.45;;;28.30;45.00;;;;;;6195327;22;81884;-76
2023/06/02 15:53:41;;;;;;;6.18;2.47;;;28.20;45.00;;;;;;6191003;22;82868;-76
2023/06/02 15:56:08;;;;;;;8.85;2.33;;;28.20;45.70;;;;;;6193574;22;82693;-76
2023/06/02 15:58:33;;;;;;;8.07;2.78;;;28.20;46.30;;;;;;6191108;22;82361;-75
2023/06/02 16:00:59;;;;;;;6.53;2.50;;;28.10;46.00;;;;;;6194489;22;82255;-76
2023/06/02 16:03:25;;;;;;;4.75;2.13;;;28.10;45.90;;;;;;6193213;22;82928;-76
2023/06/02 16:05:50;;;;;;;5.68;2.90;;;28.00;46.10;;;;;;6194828;22;82794;-75